createdAt,value
2019-04-01T00:00:36.796Z,3.45
2019-04-01T00:03:08.094Z,3.55
2019-04-01T00:05:38.457Z,3.57
2019-04-01T00:08:08.720Z,3.68
2019-04-01T00:10:39.045Z,3.67
2019-04-01T00:13:09.676Z,3.71
2019-04-01T00:15:40.215Z,3.72
2019-04-01T00:18:10.510Z,3.72
2019-04-01T00:20:40.960Z,3.71
2019-04-01T00:23:11.387Z,3.68
2019-04-01T00:25:41.977Z,3.61
2019-04-01T00:28:12.550Z,3.63
2019-04-01T00:30:42.876Z,3.57
2019-04-01T00:33:14.080Z,3.55
2019-04-01T00:35:44.347Z,3.59
2019-04-01T00:38:14.791Z,3.54
2019-04-01T00:40:45.096Z,3.55
2019-04-01T00:43:19.986Z,3.55
2019-04-01T00:45:51.304Z,3.56
2019-04-01T00:48:21.900Z,3.56
2019-04-01T00:50:52.335Z,3.61
2019-04-01T00:53:22.684Z,3.62
2019-04-01T00:55:53.043Z,3.59
2019-04-01T00:58:23.920Z,3.58
2019-04-01T01:00:54.306Z,3.61
2019-04-01T01:03:25.173Z,3.66
2019-04-01T01:05:55.905Z,3.70
2019-04-01T01:08:27.704Z,3.71
2019-04-01T01:10:57.975Z,3.70
2019-04-01T01:13:29.199Z,3.74
2019-04-01T01:15:59.478Z,3.71
2019-04-01T01:18:30.718Z,3.74
2019-04-01T01:21:01.833Z,3.73
2019-04-01T01:23:32.531Z,3.82
2019-04-01T01:26:02.928Z,3.86
2019-04-01T01:28:36.034Z,3.82
2019-04-01T01:31:06.790Z,3.74
2019-04-01T01:33:37.631Z,3.81
2019-04-01T01:36:08.046Z,3.88
2019-04-01T01:38:38.913Z,3.91
2019-04-01T01:41:09.487Z,3.73
2019-04-01T01:43:40.896Z,3.74
2019-04-01T01:46:11.163Z,3.75
2019-04-01T01:48:41.427Z,3.72
2019-04-01T01:51:11.807Z,3.74
2019-04-01T01:53:42.339Z,3.65
2019-04-01T01:56:12.867Z,3.61
2019-04-01T01:58:43.628Z,3.55
2019-04-01T02:01:14.314Z,3.51
2019-04-01T02:03:45.201Z,3.47
2019-04-01T02:06:15.527Z,3.38
2019-04-01T02:08:46.049Z,3.28
2019-04-01T02:11:17.178Z,3.24
2019-04-01T02:13:47.525Z,3.21
2019-04-01T02:16:17.892Z,3.08
2019-04-01T02:18:48.189Z,3.05
2019-04-01T02:21:18.449Z,3.01
2019-04-01T02:23:49.209Z,3.03
2019-04-01T02:26:20.522Z,3.03
2019-04-01T02:28:50.768Z,3.02
2019-04-01T02:31:21.022Z,2.92
2019-04-01T02:33:51.790Z,2.83
2019-04-01T02:36:22.265Z,2.71
2019-04-01T02:38:52.879Z,2.64
2019-04-01T02:41:23.577Z,2.55
2019-04-01T02:43:54.157Z,2.52
2019-04-01T02:46:24.422Z,2.49
2019-04-01T02:48:54.661Z,2.46
2019-04-01T02:51:25.317Z,2.45
2019-04-01T02:53:55.537Z,2.39
2019-04-01T02:56:25.819Z,2.38
2019-04-01T02:58:56.043Z,2.38
2019-04-01T03:01:26.642Z,2.42
2019-04-01T03:03:57.538Z,2.44
2019-04-01T03:06:28.160Z,2.45
2019-04-01T03:08:58.737Z,2.44
2019-04-01T03:11:29.604Z,2.40
2019-04-01T03:13:59.927Z,2.38
2019-04-01T03:16:31.151Z,2.37
2019-04-01T03:19:01.642Z,2.36
2019-04-01T03:21:32.260Z,2.29
2019-04-01T03:24:02.605Z,2.30
2019-04-01T03:26:33.450Z,2.31
2019-04-01T03:29:03.799Z,2.26
2019-04-01T03:31:34.080Z,2.25
2019-04-01T03:34:04.891Z,2.19
2019-04-01T03:36:35.269Z,2.20
2019-04-01T03:39:07.336Z,2.20
2019-04-01T03:41:37.927Z,2.16
2019-04-01T03:44:09.580Z,2.13
2019-04-01T03:46:39.855Z,2.12
2019-04-01T03:49:10.248Z,2.10
2019-04-01T03:51:40.928Z,2.10
2019-04-01T03:54:11.465Z,2.20
2019-04-01T03:56:42.153Z,2.20
2019-04-01T03:59:12.560Z,2.23
2019-04-01T04:01:42.799Z,2.25
2019-04-01T04:04:13.708Z,2.21
2019-04-01T04:06:43.922Z,2.18
2019-04-01T04:09:14.175Z,2.13
2019-04-01T04:11:44.537Z,2.12
2019-04-01T04:14:15.187Z,2.14
2019-04-01T04:16:45.937Z,2.17
2019-04-01T04:19:16.390Z,2.18
2019-04-01T04:21:46.817Z,2.19
2019-04-01T04:24:17.573Z,2.16
2019-04-01T04:26:48.236Z,2.16
2019-04-01T04:29:18.905Z,2.20
2019-04-01T04:31:50.027Z,2.23
2019-04-01T04:34:20.779Z,2.23
2019-04-01T04:36:51.820Z,2.17
2019-04-01T04:39:22.085Z,2.13
2019-04-01T04:41:53.639Z,2.11
2019-04-01T04:44:24.383Z,2.05
2019-04-01T04:46:54.661Z,2.02
2019-04-01T04:49:25.644Z,2.02
2019-04-01T04:51:56.344Z,2.07
2019-04-01T04:54:26.575Z,2.14
2019-04-01T04:56:56.851Z,2.19
2019-04-01T04:59:27.135Z,2.28
2019-04-01T05:01:57.502Z,2.35
2019-04-01T05:04:28.305Z,2.37
2019-04-01T05:06:59.004Z,2.43
2019-04-01T05:09:29.197Z,2.54
2019-04-01T05:11:59.561Z,2.62
2019-04-01T05:14:29.874Z,2.68
2019-04-01T05:17:00.639Z,2.79
2019-04-01T05:19:31.006Z,2.96
2019-04-01T05:22:01.364Z,3.12
2019-04-01T05:24:32.370Z,3.25
2019-04-01T05:27:04.619Z,3.39
2019-04-01T05:29:36.214Z,3.48
2019-04-01T05:32:07.034Z,3.55
2019-04-01T05:34:37.559Z,3.54
2019-04-01T05:37:09.107Z,3.53
2019-04-01T05:39:40.112Z,3.59
2019-04-01T05:42:10.649Z,3.72
2019-04-01T05:44:41.359Z,3.76
2019-04-01T05:47:11.640Z,3.79
2019-04-01T05:49:42.253Z,3.83
2019-04-01T05:52:12.786Z,3.95
2019-04-01T05:54:44.262Z,4.15
2019-04-01T05:57:15.973Z,4.21
2019-04-01T05:59:47.133Z,4.26
2019-04-01T06:02:17.386Z,4.19
2019-04-01T06:04:48.039Z,4.30
2019-04-01T06:07:19.514Z,4.26
2019-04-01T06:09:49.949Z,4.29
2019-04-01T06:12:24.142Z,4.42
2019-04-01T06:14:53.820Z,4.52
2019-04-01T06:17:24.086Z,4.64
2019-04-01T06:19:55.126Z,4.68
2019-04-01T06:22:25.456Z,4.74
2019-04-01T06:24:58.241Z,4.79
2019-04-01T06:27:29.131Z,4.94
2019-04-01T06:30:00.012Z,4.92
2019-04-01T06:32:30.426Z,5.07
2019-04-01T06:35:00.756Z,5.16
2019-04-01T06:37:31.907Z,5.19
2019-04-01T06:40:02.378Z,5.31
2019-04-01T06:42:33.509Z,5.27
2019-04-01T06:45:05.028Z,5.32
2019-04-01T06:47:35.262Z,5.38
2019-04-01T06:50:06.029Z,5.43
2019-04-01T06:52:36.350Z,5.53
2019-04-01T06:55:07.260Z,5.56
2019-04-01T06:57:37.617Z,5.76
2019-04-01T07:00:08.495Z,5.86
2019-04-01T07:02:39.742Z,5.98
2019-04-01T07:05:12.604Z,6.11
2019-04-01T07:07:42.957Z,6.26
2019-04-01T07:10:13.408Z,6.38
2019-04-01T07:12:43.907Z,6.25
2019-04-01T07:15:14.547Z,6.23
2019-04-01T07:17:45.259Z,6.18
2019-04-01T07:20:15.943Z,6.31
2019-04-01T07:22:46.590Z,6.40
2019-04-01T07:25:17.380Z,6.40
2019-04-01T07:27:48.056Z,6.41
2019-04-01T07:30:19.549Z,6.47
2019-04-01T07:32:50.301Z,6.52
2019-04-01T07:35:21.029Z,6.69
2019-04-01T07:37:51.445Z,6.78
2019-04-01T07:40:22.469Z,6.59
2019-04-01T07:42:54.253Z,6.55
2019-04-01T07:45:24.507Z,6.54
2019-04-01T07:47:54.753Z,6.57
2019-04-01T07:50:25.811Z,6.56
2019-04-01T07:52:56.048Z,6.50
2019-04-01T07:55:26.735Z,6.62
2019-04-01T07:57:59.731Z,6.63
2019-04-01T08:00:29.883Z,6.72
2019-04-01T08:03:00.096Z,6.81
2019-04-01T08:05:30.461Z,6.94
2019-04-01T08:08:01.276Z,7.04
2019-04-01T08:10:31.737Z,7.07
2019-04-01T08:13:02.640Z,7.19
2019-04-01T08:15:32.948Z,7.20
2019-04-01T08:18:03.250Z,7.13
2019-04-01T08:20:33.547Z,7.19
2019-04-01T08:23:03.866Z,7.29
2019-04-01T08:25:34.600Z,7.42
2019-04-01T08:28:05.060Z,7.51
2019-04-01T08:30:35.376Z,7.48
2019-04-01T08:33:05.679Z,7.53
2019-04-01T08:35:36.046Z,7.65
2019-04-01T08:38:06.646Z,7.69
2019-04-01T08:40:37.453Z,7.62
2019-04-01T08:43:08.743Z,7.56
2019-04-01T08:45:39.315Z,7.59
2019-04-01T08:48:09.664Z,7.67
2019-04-01T08:50:40.235Z,7.58
2019-04-01T08:53:10.515Z,7.61
2019-04-01T08:55:41.682Z,7.60
2019-04-01T08:58:12.596Z,7.64
2019-04-01T09:00:43.209Z,7.90
2019-04-01T09:03:13.741Z,8.02
2019-04-01T09:05:44.029Z,8.15
2019-04-01T09:08:14.338Z,8.30
2019-04-01T09:10:44.785Z,8.74
2019-04-01T09:13:15.647Z,9.21
2019-04-01T09:15:46.013Z,9.70
2019-04-01T09:18:16.317Z,10.09
2019-04-01T09:20:46.608Z,10.72
2019-04-01T09:23:17.503Z,10.86
2019-04-01T09:25:48.261Z,10.59
2019-04-01T09:28:18.739Z,11.45
2019-04-01T09:30:49.478Z,12.01
2019-04-01T09:33:20.129Z,12.31
2019-04-01T09:35:51.171Z,12.82
2019-04-01T09:38:21.620Z,13.05
2019-04-01T09:40:52.723Z,13.06
2019-04-01T09:43:24.023Z,13.57
2019-04-01T09:45:54.945Z,13.57
2019-04-01T09:48:25.268Z,13.52
2019-04-01T09:50:55.686Z,13.30
2019-04-01T09:53:26.751Z,13.08
2019-04-01T09:55:57.879Z,13.57
2019-04-01T09:58:28.200Z,13.35
2019-04-01T10:00:58.852Z,13.35
2019-04-01T10:03:29.205Z,13.37
2019-04-01T10:05:59.656Z,14.00
2019-04-01T10:08:42.051Z,13.96
2019-04-01T10:11:03.177Z,14.22
2019-04-01T10:13:33.520Z,14.38
2019-04-01T10:16:03.845Z,14.51
2019-04-01T10:18:34.132Z,14.02
2019-04-01T10:21:04.434Z,14.29
2019-04-01T10:23:34.721Z,13.31
2019-04-01T10:26:05.477Z,13.69
2019-04-01T10:28:35.987Z,14.33
2019-04-01T10:31:06.480Z,13.71
2019-04-01T10:33:36.802Z,13.57
2019-04-01T10:36:07.165Z,13.46
2019-04-01T10:38:37.902Z,14.23
2019-04-01T10:41:08.200Z,14.51
2019-04-01T10:43:38.421Z,14.55
2019-04-01T10:46:12.109Z,14.25
2019-04-01T10:48:40.833Z,14.13
2019-04-01T10:51:12.666Z,14.12
2019-04-01T10:53:43.297Z,14.25
2019-04-01T10:56:13.828Z,14.52
2019-04-01T10:58:44.537Z,14.61
2019-04-01T11:01:14.982Z,13.73
2019-04-01T11:03:46.160Z,14.06
2019-04-01T11:06:17.176Z,13.78
2019-04-01T11:08:47.440Z,13.97
2019-04-01T11:11:17.681Z,13.73
2019-04-01T11:13:51.573Z,13.63
2019-04-01T11:16:20.098Z,13.80
2019-04-01T11:18:51.244Z,13.22
2019-04-01T11:21:21.495Z,13.38
2019-04-01T11:23:52.114Z,13.51
2019-04-01T11:26:22.827Z,13.34
2019-04-01T11:28:53.517Z,13.55
2019-04-01T11:31:23.966Z,13.75
2019-04-01T11:33:54.436Z,13.96
2019-04-01T11:36:26.000Z,13.38
2019-04-01T11:38:56.274Z,13.75
2019-04-01T11:41:26.655Z,14.10
2019-04-01T11:43:57.480Z,14.68
2019-04-01T11:46:28.460Z,14.18
2019-04-01T11:48:59.253Z,13.98
2019-04-01T11:51:33.510Z,14.02
2019-04-01T11:54:03.218Z,13.72
2019-04-01T11:56:33.547Z,13.46
2019-04-01T11:59:04.009Z,13.53
2019-04-01T12:01:36.772Z,13.53
2019-04-01T12:04:06.899Z,13.74
2019-04-01T12:06:37.482Z,14.35
2019-04-01T12:09:08.889Z,14.76
2019-04-01T12:11:39.991Z,14.69
2019-04-01T12:14:10.323Z,14.76
2019-04-01T12:16:41.410Z,14.52
2019-04-01T12:19:12.221Z,14.90
2019-04-01T12:21:43.206Z,14.57
2019-04-01T12:24:13.585Z,14.85
2019-04-01T12:26:44.745Z,14.38
2019-04-01T12:29:15.674Z,14.54
2019-04-01T12:31:46.122Z,14.48
2019-04-01T12:34:17.572Z,14.57
2019-04-01T12:36:49.296Z,14.81
2019-04-01T12:39:20.367Z,14.60
2019-04-01T12:41:50.662Z,15.03
2019-04-01T12:44:21.680Z,14.60
2019-04-01T12:46:52.886Z,14.98
2019-04-01T12:49:26.861Z,15.25
2019-04-01T12:51:59.269Z,15.05
2019-04-01T12:54:29.557Z,15.08
2019-04-01T12:57:00.861Z,15.06
2019-04-01T12:59:31.817Z,14.89
2019-04-01T13:02:02.123Z,15.17
2019-04-01T13:04:35.932Z,15.37
2019-04-01T13:07:05.873Z,15.15
2019-04-01T13:09:36.351Z,15.18
2019-04-01T13:12:06.965Z,14.88
2019-04-01T13:14:40.115Z,15.09
2019-04-01T13:17:10.536Z,15.38
2019-04-01T13:19:40.784Z,14.96
2019-04-01T13:22:11.242Z,15.40
2019-04-01T13:24:41.820Z,15.41
2019-04-01T13:27:12.905Z,15.85
2019-04-01T13:29:43.337Z,14.72
2019-04-01T13:32:13.766Z,14.28
2019-04-01T13:34:44.563Z,14.56
2019-04-01T13:37:15.807Z,14.89
2019-04-01T13:39:46.659Z,15.56
2019-04-01T13:42:16.965Z,14.95
2019-04-01T13:44:47.750Z,15.14
2019-04-01T13:47:18.666Z,15.60
2019-04-01T13:49:49.724Z,15.20
2019-04-01T13:52:21.073Z,15.04
2019-04-01T13:54:52.531Z,15.21
2019-04-01T13:57:24.585Z,14.97
2019-04-01T13:59:54.849Z,14.86
2019-04-01T14:02:26.619Z,13.93
2019-04-01T14:04:57.698Z,12.69
2019-04-01T14:07:28.540Z,12.69
2019-04-01T14:09:58.843Z,12.38
2019-04-01T14:12:29.116Z,12.67
2019-04-01T14:15:00.139Z,12.61
2019-04-01T14:17:30.843Z,12.90
2019-04-01T14:20:01.424Z,13.01
2019-04-01T14:22:32.239Z,12.77
2019-04-01T14:25:02.475Z,12.38
2019-04-01T14:27:34.123Z,11.71
2019-04-01T14:30:05.718Z,12.13
2019-04-01T14:32:36.062Z,12.86
2019-04-01T14:35:07.451Z,14.11
2019-04-01T14:37:39.739Z,14.18
2019-04-01T14:40:10.149Z,14.05
2019-04-01T14:42:41.096Z,13.62
2019-04-01T14:45:11.497Z,13.41
2019-04-01T14:47:56.626Z,11.92
2019-04-01T14:50:15.171Z,11.76
2019-04-01T14:52:45.915Z,11.14
2019-04-01T14:55:16.369Z,11.02
2019-04-01T14:57:46.680Z,10.38
2019-04-01T15:00:18.184Z,10.40
2019-04-01T15:02:48.540Z,10.56
2019-04-01T15:05:20.744Z,10.35
2019-04-01T15:07:52.277Z,10.41
2019-04-01T15:10:23.123Z,10.55
2019-04-01T15:13:04.994Z,10.28
2019-04-01T15:15:26.161Z,10.51
2019-04-01T15:17:56.494Z,10.41
2019-04-01T15:20:27.027Z,10.33
2019-04-01T15:22:57.270Z,10.33
2019-04-01T15:25:27.940Z,10.14
2019-04-01T15:27:58.500Z,10.09
2019-04-01T15:30:31.902Z,10.22
2019-04-01T15:33:02.178Z,10.25
2019-04-01T15:35:32.541Z,10.31
2019-04-01T15:38:02.908Z,10.32
2019-04-01T15:40:33.492Z,10.30
2019-04-01T15:43:04.492Z,10.30
2019-04-01T15:45:35.436Z,10.21
2019-04-01T15:48:07.560Z,10.08
2019-04-01T15:50:38.410Z,9.93
2019-04-01T15:53:09.047Z,9.89
2019-04-01T15:55:39.717Z,9.94
2019-04-01T15:58:09.952Z,10.00
2019-04-01T16:00:40.203Z,9.97
2019-04-01T16:03:10.685Z,9.86
2019-04-01T16:05:40.910Z,9.90
2019-04-01T16:08:11.276Z,10.00
2019-04-01T16:10:41.561Z,10.00
2019-04-01T16:13:14.108Z,9.84
2019-04-01T16:15:44.993Z,9.90
2019-04-01T16:18:15.782Z,9.80
2019-04-01T16:20:47.089Z,9.67
2019-04-01T16:23:18.971Z,9.73
2019-04-01T16:25:50.291Z,9.45
2019-04-01T16:28:20.979Z,9.50
2019-04-01T16:30:51.334Z,9.20
2019-04-01T16:33:21.776Z,9.01
2019-04-01T16:35:52.220Z,8.88
2019-04-01T16:38:22.832Z,8.88
2019-04-01T16:40:53.732Z,8.70
2019-04-01T16:43:25.709Z,8.64
2019-04-01T16:45:58.585Z,8.56
2019-04-01T16:48:30.098Z,8.58
2019-04-01T16:51:02.373Z,8.56
2019-04-01T16:53:33.672Z,8.49
2019-04-01T16:56:05.232Z,8.42
2019-04-01T16:58:36.565Z,8.43
2019-04-01T17:01:07.295Z,8.39
2019-04-01T17:03:37.567Z,8.42
2019-04-01T17:06:08.360Z,8.31
2019-04-01T17:08:39.315Z,8.24
2019-04-01T17:11:09.834Z,8.11
2019-04-01T17:13:40.472Z,8.21
2019-04-01T17:16:11.679Z,8.22
2019-04-01T17:18:42.848Z,8.13
2019-04-01T17:21:14.882Z,8.07
2019-04-01T17:23:47.165Z,7.94
2019-04-01T17:26:18.422Z,7.87
2019-04-01T17:28:52.264Z,7.76
2019-04-01T17:31:23.051Z,7.56
2019-04-01T17:33:56.191Z,7.53
2019-04-01T17:36:30.187Z,7.35
2019-04-01T17:39:00.623Z,7.22
2019-04-01T17:41:31.288Z,7.24
2019-04-01T17:44:01.720Z,7.11
2019-04-01T17:46:32.917Z,7.14
2019-04-01T17:49:04.130Z,7.08
2019-04-01T17:51:34.740Z,7.09
2019-04-01T17:54:09.616Z,7.01
2019-04-01T17:56:46.307Z,6.94
2019-04-01T17:59:17.556Z,6.78
2019-04-01T18:01:48.269Z,6.75
2019-04-01T18:04:27.206Z,6.74
2019-04-01T18:06:58.438Z,6.79
2019-04-01T18:09:44.796Z,6.78
2019-04-01T18:12:15.350Z,6.75
2019-04-01T18:14:51.663Z,6.75
2019-04-01T18:17:45.935Z,6.55
2019-04-01T18:20:20.078Z,6.60
2019-04-01T18:22:49.476Z,6.60
2019-04-01T18:25:21.057Z,6.51
2019-04-01T18:27:54.806Z,6.45
2019-04-01T18:30:25.909Z,6.43
2019-04-01T18:32:56.468Z,6.34
2019-04-01T18:35:28.813Z,6.32
2019-04-01T18:37:59.551Z,6.29
2019-04-01T18:40:32.989Z,6.33
2019-04-01T18:43:02.411Z,6.27
2019-04-01T18:45:32.684Z,6.16
2019-04-01T18:48:03.417Z,6.12
2019-04-01T18:50:33.733Z,6.18
2019-04-01T18:53:03.996Z,6.11
2019-04-01T18:55:34.949Z,6.13
2019-04-01T18:58:05.746Z,6.11
2019-04-01T19:00:36.568Z,6.11
2019-04-01T19:03:07.706Z,6.12
2019-04-01T19:05:39.593Z,6.10
2019-04-01T19:08:10.023Z,6.05
2019-04-01T19:10:41.608Z,6.04
2019-04-01T19:13:13.370Z,6.00
2019-04-01T19:15:44.100Z,6.07
2019-04-01T19:18:15.238Z,6.14
2019-04-01T19:20:56.063Z,5.99
2019-04-01T19:23:19.042Z,6.01
2019-04-01T19:25:54.289Z,5.96
2019-04-01T19:28:26.047Z,5.97
2019-04-01T19:30:58.135Z,5.97
2019-04-01T19:33:28.676Z,5.95
2019-04-01T19:36:01.237Z,5.93
2019-04-01T19:38:34.647Z,6.00
2019-04-01T19:41:06.671Z,5.99
2019-04-01T19:43:37.205Z,6.01
2019-04-01T19:46:09.426Z,5.95
2019-04-01T19:48:44.840Z,5.89
2019-04-01T19:51:18.685Z,5.91
2019-04-01T19:53:49.246Z,5.84
2019-04-01T19:56:21.305Z,5.85
2019-04-01T19:58:51.941Z,5.84
2019-04-01T20:01:24.787Z,5.88
2019-04-01T20:03:56.284Z,5.95
2019-04-01T20:06:27.912Z,5.95
2019-04-01T20:08:58.631Z,5.98
2019-04-01T20:11:29.183Z,5.80
2019-04-01T20:14:01.315Z,5.75
2019-04-01T20:16:32.272Z,5.73
2019-04-01T20:19:04.406Z,5.77
2019-04-01T20:21:36.176Z,5.78
2019-04-01T20:24:06.501Z,5.71
2019-04-01T20:26:37.759Z,5.67
2019-04-01T20:29:10.161Z,5.77
2019-04-01T20:31:57.361Z,5.85
2019-04-01T20:34:19.927Z,5.82
2019-04-01T20:36:48.095Z,5.91
2019-04-01T20:39:18.872Z,5.88
2019-04-01T20:41:49.269Z,5.89
2019-04-01T20:44:29.232Z,6.00
2019-04-01T20:47:03.133Z,6.00
2019-04-01T20:49:34.165Z,5.98
2019-04-01T20:52:05.851Z,5.98
2019-04-01T20:54:45.483Z,5.94
2019-04-01T20:57:17.335Z,6.01
2019-04-01T20:59:49.214Z,6.00
2019-04-01T21:02:20.501Z,6.02
2019-04-01T21:05:06.977Z,5.99
2019-04-01T21:07:42.740Z,5.91
2019-04-01T21:10:19.579Z,6.03
2019-04-01T21:12:53.475Z,5.98
2019-04-01T21:15:37.760Z,6.01
2019-04-01T21:18:08.349Z,6.05
2019-04-01T21:20:44.273Z,5.99
2019-04-01T21:23:16.372Z,6.01
2019-04-01T21:26:00.040Z,6.00
2019-04-01T21:28:39.013Z,6.04
2019-04-01T21:31:34.247Z,6.05
2019-04-01T21:40:57.931Z,6.06
2019-04-01T21:43:28.404Z,6.02
2019-04-01T21:45:59.805Z,5.98
2019-04-01T21:48:33.488Z,6.01
2019-04-01T21:51:04.551Z,5.98
2019-04-01T21:53:36.742Z,6.04
2019-04-01T21:56:26.216Z,5.97
2019-04-01T21:59:19.299Z,5.94
2019-04-01T22:01:52.763Z,5.99
2019-04-01T22:04:27.892Z,6.00
2019-04-01T22:06:58.708Z,6.04
2019-04-01T22:09:29.033Z,6.01
2019-04-01T22:12:01.097Z,6.04
2019-04-01T22:14:32.196Z,6.01
2019-04-01T22:17:03.629Z,6.07
2019-04-01T22:19:34.048Z,6.10
2019-04-01T22:22:05.465Z,6.05
2019-04-01T22:24:36.121Z,6.02
2019-04-01T22:27:06.931Z,6.05
2019-04-01T22:29:37.661Z,6.11
2019-04-01T22:32:08.505Z,6.17
2019-04-01T22:34:40.028Z,6.18
2019-04-01T22:37:10.790Z,6.11
2019-04-01T22:39:41.114Z,6.17
2019-04-01T22:42:11.409Z,6.14
2019-04-01T22:44:42.632Z,6.13
2019-04-01T22:47:13.262Z,6.19
2019-04-01T22:49:43.619Z,6.18
2019-04-01T22:52:14.479Z,6.25
2019-04-01T22:54:44.920Z,6.22
2019-04-01T22:57:15.285Z,6.14
2019-04-01T22:59:45.653Z,6.16
2019-04-01T23:02:15.903Z,6.18
2019-04-01T23:04:47.175Z,6.20
2019-04-01T23:07:17.806Z,6.22
2019-04-01T23:09:48.056Z,6.16
2019-04-01T23:12:18.659Z,6.16
2019-04-01T23:14:49.163Z,6.16
2019-04-01T23:17:19.646Z,6.18
2019-04-01T23:19:50.866Z,6.15
2019-04-01T23:22:21.239Z,6.20
2019-04-01T23:24:51.562Z,6.21
2019-04-01T23:27:23.165Z,6.15
2019-04-01T23:29:54.309Z,6.10
2019-04-01T23:32:25.247Z,6.11
2019-04-01T23:34:55.518Z,6.12
2019-04-01T23:37:25.888Z,6.12
2019-04-01T23:39:56.205Z,6.12
2019-04-01T23:42:28.106Z,6.12
2019-04-01T23:44:58.882Z,6.12
2019-04-01T23:47:30.446Z,6.10
2019-04-01T23:50:00.949Z,6.10
2019-04-01T23:52:31.210Z,6.03
2019-04-01T23:55:02.140Z,6.04
2019-04-01T23:57:33.016Z,6.02
